sensor_id;sensor_type;location;lat;lon;timestamp;pressure;altitude;pressure_sealevel;temperature;humidity
62103;BME280;48077;48.104;11.702;2023-03-14T00:00:09;93997.22;;;7.99;90.22
62103;BME280;48077;48.104;11.702;2023-03-14T00:02:34;94005.19;;;7.99;91.00
62103;BME280;48077;48.104;11.702;2023-03-14T00:04:58;93998.97;;;7.83;91.50
62103;BME280;48077;48.104;11.702;2023-03-14T00:07:21;93976.13;;;7.55;92.10
62103;BME280;48077;48.104;11.702;2023-03-14T00:09:47;94028.00;;;7.95;93.05
62103;BME280;48077;48.104;11.702;2023-03-14T00:12:10;94002.09;;;7.80;92.67
62103;BME280;48077;48.104;11.702;2023-03-14T00:14:34;93992.28;;;7.81;93.29
62103;BME280;48077;48.104;11.702;2023-03-14T00:16:57;93999.34;;;7.70;93.58
62103;BME280;48077;48.104;11.702;2023-03-14T00:19:21;94002.78;;;7.65;93.82
62103;BME280;48077;48.104;11.702;2023-03-14T00:21:44;93982.22;;;7.56;94.00
62103;BME280;48077;48.104;11.702;2023-03-14T00:24:08;93978.53;;;7.57;94.55
62103;BME280;48077;48.104;11.702;2023-03-14T00:26:31;94000.22;;;7.76;95.21
62103;BME280;48077;48.104;11.702;2023-03-14T00:28:55;93973.50;;;7.60;95.25
62103;BME280;48077;48.104;11.702;2023-03-14T00:31:18;93967.66;;;7.58;95.77
62103;BME280;48077;48.104;11.702;2023-03-14T00:33:43;93935.19;;;7.19;96.45
62103;BME280;48077;48.104;11.702;2023-03-14T00:36:10;93977.81;;;7.39;96.17
62103;BME280;48077;48.104;11.702;2023-03-14T00:38:34;94030.75;;;7.78;96.88
62103;BME280;48077;48.104;11.702;2023-03-14T00:40:58;94012.59;;;7.65;96.58
62103;BME280;48077;48.104;11.702;2023-03-14T00:43:21;93885.50;;;6.82;96.87
62103;BME280;48077;48.104;11.702;2023-03-14T00:45:45;93930.59;;;7.09;97.08
62103;BME280;48077;48.104;11.702;2023-03-14T00:48:08;93914.25;;;6.95;97.23
62103;BME280;48077;48.104;11.702;2023-03-14T00:50:32;93965.44;;;7.23;97.58
62103;BME280;48077;48.104;11.702;2023-03-14T00:52:55;93911.25;;;6.86;97.27
62103;BME280;48077;48.104;11.702;2023-03-14T00:55:18;93928.69;;;7.04;97.92
62103;BME280;48077;48.104;11.702;2023-03-14T00:57:42;93969.81;;;7.34;97.85
62103;BME280;48077;48.104;11.702;2023-03-14T01:00:06;93972.72;;;7.33;97.35
62103;BME280;48077;48.104;11.702;2023-03-14T01:02:31;93961.25;;;7.27;97.90
62103;BME280;48077;48.104;11.702;2023-03-14T01:04:54;93984.78;;;7.45;98.80
62103;BME280;48077;48.104;11.702;2023-03-14T01:07:18;93932.69;;;7.07;98.56
62103;BME280;48077;48.104;11.702;2023-03-14T01:09:41;94023.75;;;7.67;99.18
62103;BME280;48077;48.104;11.702;2023-03-14T01:12:04;93991.19;;;7.49;99.57
62103;BME280;48077;48.104;11.702;2023-03-14T01:14:28;94032.31;;;7.74;99.80
62103;BME280;48077;48.104;11.702;2023-03-14T01:16:51;94024.78;;;7.66;100.00
62103;BME280;48077;48.104;11.702;2023-03-14T01:19:14;94064.13;;;7.96;100.00
62103;BME280;48077;48.104;11.702;2023-03-14T01:21:38;94042.69;;;7.76;100.00
62103;BME280;48077;48.104;11.702;2023-03-14T01:24:04;94028.50;;;7.65;100.00
62103;BME280;48077;48.104;11.702;2023-03-14T01:26:30;94025.91;;;7.70;100.00
62103;BME280;48077;48.104;11.702;2023-03-14T01:28:55;94033.53;;;7.66;100.00
62103;BME280;48077;48.104;11.702;2023-03-14T01:31:18;94009.72;;;7.44;100.00
62103;BME280;48077;48.104;11.702;2023-03-14T01:33:42;94015.88;;;7.50;100.00
62103;BME280;48077;48.104;11.702;2023-03-14T01:36:06;93975.00;;;7.24;100.00
62103;BME280;48077;48.104;11.702;2023-03-14T01:38:31;94042.22;;;7.57;100.00
62103;BME280;48077;48.104;11.702;2023-03-14T01:40:55;94054.19;;;7.59;100.00
62103;BME280;48077;48.104;11.702;2023-03-14T01:43:19;94031.97;;;7.43;100.00
62103;BME280;48077;48.104;11.702;2023-03-14T01:48:31;93984.19;;;7.16;100.00
62103;BME280;48077;48.104;11.702;2023-03-14T01:50:56;94020.03;;;7.41;100.00
62103;BME280;48077;48.104;11.702;2023-03-14T01:53:20;94020.25;;;7.39;100.00
62103;BME280;48077;48.104;11.702;2023-03-14T01:55:47;94067.59;;;7.75;100.00
62103;BME280;48077;48.104;11.702;2023-03-14T01:58:11;93991.44;;;7.21;100.00
62103;BME280;48077;48.104;11.702;2023-03-14T02:00:35;94018.13;;;7.36;100.00
62103;BME280;48077;48.104;11.702;2023-03-14T02:03:02;94095.44;;;7.72;100.00
62103;BME280;48077;48.104;11.702;2023-03-14T02:05:31;94037.25;;;7.38;100.00
62103;BME280;48077;48.104;11.702;2023-03-14T02:08:00;93978.19;;;6.99;100.00
62103;BME280;48077;48.104;11.702;2023-03-14T02:10:27;94037.72;;;7.35;100.00
62103;BME280;48077;48.104;11.702;2023-03-14T02:12:53;93959.63;;;6.77;100.00
62103;BME280;48077;48.104;11.702;2023-03-14T02:15:18;93994.88;;;6.99;100.00
62103;BME280;48077;48.104;11.702;2023-03-14T02:17:43;94047.09;;;7.43;100.00
62103;BME280;48077;48.104;11.702;2023-03-14T02:20:16;94096.75;;;7.69;100.00
62103;BME280;48077;48.104;11.702;2023-03-14T02:22:45;94083.97;;;7.66;100.00
62103;BME280;48077;48.104;11.702;2023-03-14T02:27:37;94032.00;;;7.21;100.00
62103;BME280;48077;48.104;11.702;2023-03-14T02:30:14;94069.50;;;7.52;100.00
62103;BME280;48077;48.104;11.702;2023-03-14T02:32:40;94059.88;;;7.46;100.00
62103;BME280;48077;48.104;11.702;2023-03-14T02:35:14;94074.84;;;7.57;100.00
62103;BME280;48077;48.104;11.702;2023-03-14T02:37:54;94026.50;;;7.28;100.00
62103;BME280;48077;48.104;11.702;2023-03-14T02:40:19;94047.09;;;7.43;100.00
62103;BME280;48077;48.104;11.702;2023-03-14T02:42:43;94033.78;;;7.38;100.00
62103;BME280;48077;48.104;11.702;2023-03-14T02:47:32;94008.97;;;7.27;100.00
62103;BME280;48077;48.104;11.702;2023-03-14T02:50:14;93982.81;;;7.08;100.00
62103;BME280;48077;48.104;11.702;2023-03-14T02:52:38;93958.63;;;7.05;100.00
62103;BME280;48077;48.104;11.702;2023-03-14T02:55:02;93954.75;;;7.13;100.00
62103;BME280;48077;48.104;11.702;2023-03-14T02:57:26;93948.34;;;7.08;100.00
62103;BME280;48077;48.104;11.702;2023-03-14T02:59:50;93968.06;;;7.18;100.00
62103;BME280;48077;48.104;11.702;2023-03-14T03:02:13;93913.66;;;6.88;100.00
62103;BME280;48077;48.104;11.702;2023-03-14T03:04:36;93952.28;;;7.06;100.00
62103;BME280;48077;48.104;11.702;2023-03-14T03:07:00;93943.28;;;7.07;100.00
62103;BME280;48077;48.104;11.702;2023-03-14T03:09:23;93937.97;;;7.07;100.00
62103;BME280;48077;48.104;11.702;2023-03-14T03:11:46;93955.78;;;7.12;100.00
62103;BME280;48077;48.104;11.702;2023-03-14T03:14:10;93949.69;;;7.11;100.00
62103;BME280;48077;48.104;11.702;2023-03-14T03:16:33;93946.28;;;7.16;100.00
62103;BME280;48077;48.104;11.702;2023-03-14T03:18:56;93928.47;;;7.11;100.00
62103;BME280;48077;48.104;11.702;2023-03-14T03:21:20;93894.84;;;6.89;100.00
62103;BME280;48077;48.104;11.702;2023-03-14T03:23:46;93907.03;;;6.91;100.00
62103;BME280;48077;48.104;11.702;2023-03-14T03:26:09;93936.56;;;6.99;100.00
62103;BME280;48077;48.104;11.702;2023-03-14T03:28:33;93921.72;;;6.98;100.00
62103;BME280;48077;48.104;11.702;2023-03-14T03:30:57;93916.00;;;6.84;100.00
62103;BME280;48077;48.104;11.702;2023-03-14T03:33:20;93893.91;;;6.79;100.00
62103;BME280;48077;48.104;11.702;2023-03-14T03:35:47;93892.03;;;6.74;100.00
62103;BME280;48077;48.104;11.702;2023-03-14T03:38:11;93923.47;;;6.87;100.00
62103;BME280;48077;48.104;11.702;2023-03-14T03:40:35;93926.03;;;6.82;100.00
62103;BME280;48077;48.104;11.702;2023-03-14T03:42:58;93922.50;;;6.77;100.00
62103;BME280;48077;48.104;11.702;2023-03-14T03:45:22;93903.56;;;6.63;100.00
62103;BME280;48077;48.104;11.702;2023-03-14T03:47:45;93904.34;;;6.63;100.00
62103;BME280;48077;48.104;11.702;2023-03-14T03:50:09;93921.47;;;6.78;100.00
62103;BME280;48077;48.104;11.702;2023-03-14T03:52:32;93911.06;;;6.71;100.00
62103;BME280;48077;48.104;11.702;2023-03-14T03:54:55;93905.38;;;6.62;100.00
62103;BME280;48077;48.104;11.702;2023-03-14T03:57:20;93936.31;;;6.79;100.00
62103;BME280;48077;48.104;11.702;2023-03-14T03:59:43;93931.22;;;6.72;100.00
62103;BME280;48077;48.104;11.702;2023-03-14T04:02:07;93931.44;;;6.71;100.00
62103;BME280;48077;48.104;11.702;2023-03-14T04:04:30;93944.97;;;6.69;100.00
62103;BME280;48077;48.104;11.702;2023-03-14T04:06:54;93945.69;;;6.64;100.00
62103;BME280;48077;48.104;11.702;2023-03-14T04:09:17;93933.97;;;6.60;100.00
62103;BME280;48077;48.104;11.702;2023-03-14T04:11:41;93925.91;;;6.50;100.00
62103;BME280;48077;48.104;11.702;2023-03-14T04:14:05;93929.97;;;6.58;100.00
62103;BME280;48077;48.104;11.702;2023-03-14T04:16:29;93926.53;;;6.57;100.00
62103;BME280;48077;48.104;11.702;2023-03-14T04:18:54;93907.53;;;6.43;100.00
62103;BME280;48077;48.104;11.702;2023-03-14T04:21:18;93920.34;;;6.52;100.00
62103;BME280;48077;48.104;11.702;2023-03-14T04:23:41;93916.69;;;6.53;100.00
62103;BME280;48077;48.104;11.702;2023-03-14T04:26:05;93867.81;;;6.21;100.00
62103;BME280;48077;48.104;11.702;2023-03-14T04:28:28;93908.34;;;6.44;100.00
62103;BME280;48077;48.104;11.702;2023-03-14T04:30:51;93880.31;;;6.26;100.00
62103;BME280;48077;48.104;11.702;2023-03-14T04:33:15;93895.28;;;6.37;100.00
62103;BME280;48077;48.104;11.702;2023-03-14T04:35:40;93865.97;;;6.22;100.00
62103;BME280;48077;48.104;11.702;2023-03-14T04:38:03;93850.25;;;6.15;100.00
62103;BME280;48077;48.104;11.702;2023-03-14T04:40:27;93875.56;;;6.28;100.00
62103;BME280;48077;48.104;11.702;2023-03-14T04:42:50;93850.50;;;6.14;100.00
62103;BME280;48077;48.104;11.702;2023-03-14T04:45:13;93850.50;;;6.14;100.00
62103;BME280;48077;48.104;11.702;2023-03-14T04:47:37;93872.13;;;6.27;100.00
62103;BME280;48077;48.104;11.702;2023-03-14T04:50:00;93854.69;;;6.10;100.00
62103;BME280;48077;48.104;11.702;2023-03-14T04:52:24;93878.69;;;6.25;100.00
62103;BME280;48077;48.104;11.702;2023-03-14T04:54:47;93877.84;;;6.19;100.00
62103;BME280;48077;48.104;11.702;2023-03-14T04:57:10;93878.16;;;6.23;100.00
62103;BME280;48077;48.104;11.702;2023-03-14T04:59:34;93877.28;;;6.17;100.00
62103;BME280;48077;48.104;11.702;2023-03-14T05:01:57;93876.00;;;6.20;100.00
62103;BME280;48077;48.104;11.702;2023-03-14T05:04:20;93832.25;;;5.95;100.00
62103;BME280;48077;48.104;11.702;2023-03-14T05:06:44;93847.72;;;6.03;100.00
62103;BME280;48077;48.104;11.702;2023-03-14T05:09:07;93831.47;;;5.95;100.00
62103;BME280;48077;48.104;11.702;2023-03-14T05:11:31;93842.66;;;6.02;100.00
62103;BME280;48077;48.104;11.702;2023-03-14T05:13:55;93867.91;;;6.10;100.00
62103;BME280;48077;48.104;11.702;2023-03-14T05:16:19;93856.28;;;6.11;100.00
62103;BME280;48077;48.104;11.702;2023-03-14T05:18:42;93843.41;;;5.97;100.00
62103;BME280;48077;48.104;11.702;2023-03-14T05:21:09;93852.53;;;6.06;100.00
62103;BME280;48077;48.104;11.702;2023-03-14T05:23:32;93851.72;;;6.06;100.00
62103;BME280;48077;48.104;11.702;2023-03-14T05:25:55;93829.00;;;5.93;100.00
62103;BME280;48077;48.104;11.702;2023-03-14T05:28:19;93814.84;;;5.82;100.00
62103;BME280;48077;48.104;11.702;2023-03-14T05:30:42;93829.75;;;5.88;100.00
62103;BME280;48077;48.104;11.702;2023-03-14T05:33:06;93840.41;;;5.94;100.00
62103;BME280;48077;48.104;11.702;2023-03-14T05:35:29;93849.47;;;5.98;100.00
62103;BME280;48077;48.104;11.702;2023-03-14T05:37:52;93805.09;;;5.66;100.00
62103;BME280;48077;48.104;11.702;2023-03-14T05:40:16;93802.63;;;5.59;100.00
62103;BME280;48077;48.104;11.702;2023-03-14T05:42:39;93809.78;;;5.59;100.00
62103;BME280;48077;48.104;11.702;2023-03-14T05:45:03;93851.09;;;5.99;100.00
62103;BME280;48077;48.104;11.702;2023-03-14T05:47:26;93811.19;;;5.66;100.00
62103;BME280;48077;48.104;11.702;2023-03-14T05:49:50;93825.94;;;5.79;100.00
62103;BME280;48077;48.104;11.702;2023-03-14T05:52:13;93857.19;;;5.99;100.00
62103;BME280;48077;48.104;11.702;2023-03-14T05:54:38;93804.69;;;5.74;100.00
62103;BME280;48077;48.104;11.702;2023-03-14T05:57:03;93829.75;;;5.88;100.00
62103;BME280;48077;48.104;11.702;2023-03-14T05:59:26;93823.03;;;5.81;100.00
62103;BME280;48077;48.104;11.702;2023-03-14T06:01:50;93834.25;;;5.88;100.00
62103;BME280;48077;48.104;11.702;2023-03-14T06:04:13;93715.06;;;5.17;100.00
62103;BME280;48077;48.104;11.702;2023-03-14T06:06:36;93837.06;;;5.98;100.00
62103;BME280;48077;48.104;11.702;2023-03-14T06:09:00;93831.09;;;5.91;100.00
62103;BME280;48077;48.104;11.702;2023-03-14T06:11:24;93824.63;;;5.82;100.00
62103;BME280;48077;48.104;11.702;2023-03-14T06:13:47;93845.00;;;5.98;100.00
62103;BME280;48077;48.104;11.702;2023-03-14T06:16:11;93803.09;;;5.73;100.00
62103;BME280;48077;48.104;11.702;2023-03-14T06:18:34;93735.47;;;5.21;100.00
62103;BME280;48077;48.104;11.702;2023-03-14T06:20:57;93788.13;;;5.62;100.00
62103;BME280;48077;48.104;11.702;2023-03-14T06:23:22;93802.59;;;5.76;100.00
62103;BME280;48077;48.104;11.702;2023-03-14T06:25:45;93745.69;;;5.35;100.00
62103;BME280;48077;48.104;11.702;2023-03-14T06:28:09;93843.16;;;5.99;100.00
62103;BME280;48077;48.104;11.702;2023-03-14T06:30:32;93816.47;;;5.83;100.00
62103;BME280;48077;48.104;11.702;2023-03-14T06:32:55;93723.91;;;5.27;100.00
62103;BME280;48077;48.104;11.702;2023-03-14T06:35:19;93815.34;;;5.96;100.00
62103;BME280;48077;48.104;11.702;2023-03-14T06:37:42;93773.25;;;5.78;100.00
62103;BME280;48077;48.104;11.702;2023-03-14T06:40:06;93730.91;;;5.56;100.00
62103;BME280;48077;48.104;11.702;2023-03-14T06:42:30;93791.75;;;5.95;100.00
62103;BME280;48077;48.104;11.702;2023-03-14T06:44:53;93764.59;;;5.82;100.00
62103;BME280;48077;48.104;11.702;2023-03-14T06:47:17;93772.66;;;5.93;100.00
62103;BME280;48077;48.104;11.702;2023-03-14T06:49:40;93743.09;;;5.79;100.00
62103;BME280;48077;48.104;11.702;2023-03-14T06:52:03;93795.69;;;6.14;100.00
62103;BME280;48077;48.104;11.702;2023-03-14T06:54:27;93816.03;;;6.31;100.00
62103;BME280;48077;48.104;11.702;2023-03-14T06:56:50;93804.09;;;6.28;100.00
62103;BME280;48077;48.104;11.702;2023-03-14T06:59:14;93811.78;;;6.30;100.00
62103;BME280;48077;48.104;11.702;2023-03-14T07:01:37;93826.72;;;6.41;100.00
62103;BME280;48077;48.104;11.702;2023-03-14T07:04:01;93828.59;;;6.40;100.00
62103;BME280;48077;48.104;11.702;2023-03-14T07:06:25;93760.56;;;5.97;100.00
62103;BME280;48077;48.104;11.702;2023-03-14T07:08:48;93831.00;;;6.42;100.00
62103;BME280;48077;48.104;11.702;2023-03-14T07:11:12;93824.09;;;6.41;100.00
62103;BME280;48077;48.104;11.702;2023-03-14T07:13:38;93794.72;;;6.20;100.00
62103;BME280;48077;48.104;11.702;2023-03-14T07:16:01;93790.97;;;6.16;100.00
62103;BME280;48077;48.104;11.702;2023-03-14T07:18:25;93702.69;;;5.61;100.00
62103;BME280;48077;48.104;11.702;2023-03-14T07:20:48;93756.63;;;5.99;100.00
62103;BME280;48077;48.104;11.702;2023-03-14T07:23:12;93775.47;;;6.03;100.00
62103;BME280;48077;48.104;11.702;2023-03-14T07:25:35;93773.06;;;6.01;100.00
62103;BME280;48077;48.104;11.702;2023-03-14T07:27:58;93764.72;;;5.93;100.00
62103;BME280;48077;48.104;11.702;2023-03-14T07:30:22;93793.31;;;6.13;100.00
62103;BME280;48077;48.104;11.702;2023-03-14T07:32:45;93798.44;;;6.19;100.00
62103;BME280;48077;48.104;11.702;2023-03-14T07:35:09;93786.91;;;6.08;100.00
62103;BME280;48077;48.104;11.702;2023-03-14T07:37:32;93834.19;;;6.44;100.00
62103;BME280;48077;48.104;11.702;2023-03-14T07:39:56;93770.72;;;6.05;100.00
62103;BME280;48077;48.104;11.702;2023-03-14T07:42:19;93760.13;;;6.05;100.00
62103;BME280;48077;48.104;11.702;2023-03-14T07:44:42;93834.00;;;6.51;100.00
62103;BME280;48077;48.104;11.702;2023-03-14T07:47:06;93771.16;;;6.19;100.00
62103;BME280;48077;48.104;11.702;2023-03-14T07:49:29;93818.44;;;6.54;100.00
62103;BME280;48077;48.104;11.702;2023-03-14T07:51:52;93758.22;;;6.22;100.00
62103;BME280;48077;48.104;11.702;2023-03-14T07:54:16;93800.53;;;6.66;100.00
62103;BME280;48077;48.104;11.702;2023-03-14T07:56:39;93804.78;;;6.67;100.00
62103;BME280;48077;48.104;11.702;2023-03-14T07:59:03;93815.88;;;6.92;100.00
62103;BME280;48077;48.104;11.702;2023-03-14T08:01:26;93773.53;;;6.69;100.00
62103;BME280;48077;48.104;11.702;2023-03-14T08:03:50;93727.28;;;6.50;100.00
62103;BME280;48077;48.104;11.702;2023-03-14T08:06:13;93793.19;;;7.01;100.00
62103;BME280;48077;48.104;11.702;2023-03-14T08:08:37;93803.88;;;7.11;100.00
62103;BME280;48077;48.104;11.702;2023-03-14T08:11:07;93777.81;;;7.03;100.00
62103;BME280;48077;48.104;11.702;2023-03-14T08:13:33;93730.38;;;6.74;100.00
62103;BME280;48077;48.104;11.702;2023-03-14T08:15:57;93757.06;;;6.95;100.00
62103;BME280;48077;48.104;11.702;2023-03-14T08:18:20;93800.25;;;7.22;100.00
62103;BME280;48077;48.104;11.702;2023-03-14T08:20:43;93799.44;;;7.22;100.00
62103;BME280;48077;48.104;11.702;2023-03-14T08:23:07;93794.69;;;7.24;100.00
62103;BME280;48077;48.104;11.702;2023-03-14T08:25:30;93819.19;;;7.36;100.00
62103;BME280;48077;48.104;11.702;2023-03-14T08:27:54;93798.69;;;7.26;100.00
62103;BME280;48077;48.104;11.702;2023-03-14T08:30:18;93779.00;;;7.17;100.00
62103;BME280;48077;48.104;11.702;2023-03-14T08:32:42;93827.25;;;7.52;99.83
62103;BME280;48077;48.104;11.702;2023-03-14T08:35:07;93824.34;;;7.48;99.04
62103;BME280;48077;48.104;11.702;2023-03-14T08:37:32;93842.47;;;7.61;99.88
62103;BME280;48077;48.104;11.702;2023-03-14T08:39:55;93759.59;;;7.12;99.09
62103;BME280;48077;48.104;11.702;2023-03-14T08:42:18;93699.94;;;6.77;99.13
62103;BME280;48077;48.104;11.702;2023-03-14T08:44:42;93835.28;;;7.62;98.93
62103;BME280;48077;48.104;11.702;2023-03-14T08:47:05;93847.00;;;7.66;98.66
62103;BME280;48077;48.104;11.702;2023-03-14T08:49:29;93825.16;;;7.54;98.43
62103;BME280;48077;48.104;11.702;2023-03-14T08:51:52;93792.91;;;7.35;96.86
62103;BME280;48077;48.104;11.702;2023-03-14T08:54:15;93836.09;;;7.62;97.23
62103;BME280;48077;48.104;11.702;2023-03-14T08:56:39;93770.03;;;7.23;97.34
62103;BME280;48077;48.104;11.702;2023-03-14T08:59:03;93806.22;;;7.40;96.08
62103;BME280;48077;48.104;11.702;2023-03-14T09:01:26;93838.25;;;7.65;96.91
62103;BME280;48077;48.104;11.702;2023-03-14T09:03:50;93796.66;;;7.39;97.03
62103;BME280;48077;48.104;11.702;2023-03-14T09:06:14;93837.94;;;7.62;96.55
62103;BME280;48077;48.104;11.702;2023-03-14T09:08:41;93808.34;;;7.38;96.40
62103;BME280;48077;48.104;11.702;2023-03-14T09:11:07;93867.75;;;7.74;96.68
62103;BME280;48077;48.104;11.702;2023-03-14T09:13:30;93847.78;;;7.66;96.92
62103;BME280;48077;48.104;11.702;2023-03-14T09:15:55;93841.75;;;7.71;97.08
62103;BME280;48077;48.104;11.702;2023-03-14T09:18:19;93863.53;;;7.78;96.58
62103;BME280;48077;48.104;11.702;2023-03-14T09:20:42;93857.47;;;7.83;96.86
62103;BME280;48077;48.104;11.702;2023-03-14T09:23:06;93838.81;;;7.73;96.42
62103;BME280;48077;48.104;11.702;2023-03-14T09:25:29;93866.53;;;7.87;96.34
62103;BME280;48077;48.104;11.702;2023-03-14T09:27:52;93869.72;;;7.89;96.45
62103;BME280;48077;48.104;11.702;2023-03-14T09:30:16;93813.78;;;7.58;96.24
62103;BME280;48077;48.104;11.702;2023-03-14T09:32:40;93845.50;;;7.75;96.09
62103;BME280;48077;48.104;11.702;2023-03-14T09:35:04;93807.09;;;7.50;97.27
62103;BME280;48077;48.104;11.702;2023-03-14T09:37:27;93804.66;;;7.44;98.39
62103;BME280;48077;48.104;11.702;2023-03-14T09:39:50;93787.13;;;7.38;98.99
62103;BME280;48077;48.104;11.702;2023-03-14T09:42:17;93826.00;;;7.59;98.70
62103;BME280;48077;48.104;11.702;2023-03-14T09:44:54;93852.13;;;7.78;99.04
62103;BME280;48077;48.104;11.702;2023-03-14T09:47:19;93858.00;;;7.80;99.58
62103;BME280;48077;48.104;11.702;2023-03-14T09:49:43;93803.66;;;7.50;100.00
62103;BME280;48077;48.104;11.702;2023-03-14T09:52:17;93790.03;;;7.41;99.94
62103;BME280;48077;48.104;11.702;2023-03-14T09:54:51;93802.88;;;7.55;99.93
62103;BME280;48077;48.104;11.702;2023-03-14T09:57:21;93826.63;;;7.72;99.69
62103;BME280;48077;48.104;11.702;2023-03-14T09:59:48;93847.69;;;7.88;100.00
62103;BME280;48077;48.104;11.702;2023-03-14T10:02:20;93783.72;;;7.47;99.32
62103;BME280;48077;48.104;11.702;2023-03-14T10:04:48;93788.66;;;7.71;99.48
62103;BME280;48077;48.104;11.702;2023-03-14T10:07:37;93789.22;;;7.78;100.00
62103;BME280;48077;48.104;11.702;2023-03-14T10:10:10;93781.28;;;7.78;99.81
62103;BME280;48077;48.104;11.702;2023-03-14T10:12:35;93790.38;;;7.93;99.70
62103;BME280;48077;48.104;11.702;2023-03-14T10:15:22;93803.47;;;8.09;98.44
62103;BME280;48077;48.104;11.702;2023-03-14T10:17:48;93819.75;;;8.23;96.76
62103;BME280;48077;48.104;11.702;2023-03-14T10:20:32;93828.81;;;8.32;96.70
62103;BME280;48077;48.104;11.702;2023-03-14T10:22:56;93787.78;;;8.08;94.10
62103;BME280;48077;48.104;11.702;2023-03-14T10:25:30;93778.53;;;8.21;91.73
62103;BME280;48077;48.104;11.702;2023-03-14T10:27:54;93810.03;;;8.49;90.03
62103;BME280;48077;48.104;11.702;2023-03-14T10:32:52;93767.81;;;8.58;87.65
62103;BME280;48077;48.104;11.702;2023-03-14T10:38:15;93810.50;;;9.40;86.46
62103;BME280;48077;48.104;11.702;2023-03-14T10:40:45;93755.69;;;9.34;85.21
62103;BME280;48077;48.104;11.702;2023-03-14T10:43:16;93772.69;;;9.53;83.78
62103;BME280;48077;48.104;11.702;2023-03-14T10:45:41;93814.16;;;10.01;83.59
62103;BME280;48077;48.104;11.702;2023-03-14T10:48:19;93740.72;;;9.74;81.26
62103;BME280;48077;48.104;11.702;2023-03-14T10:51:11;93747.00;;;10.04;79.13
62103;BME280;48077;48.104;11.702;2023-03-14T10:53:41;93815.59;;;10.58;79.13
62103;BME280;48077;48.104;11.702;2023-03-14T10:56:05;93815.84;;;10.67;77.62
62103;BME280;48077;48.104;11.702;2023-03-14T10:58:30;93781.00;;;10.43;76.15
62103;BME280;48077;48.104;11.702;2023-03-14T11:03:36;93739.88;;;9.89;73.64
62103;BME280;48077;48.104;11.702;2023-03-14T11:06:12;93759.06;;;9.86;74.59
62103;BME280;48077;48.104;11.702;2023-03-14T11:09:02;93748.72;;;9.69;75.44
62103;BME280;48077;48.104;11.702;2023-03-14T11:11:30;93821.09;;;9.97;75.93
62103;BME280;48077;48.104;11.702;2023-03-14T11:16:34;93831.19;;;9.89;76.83
62103;BME280;48077;48.104;11.702;2023-03-14T11:29:53;93822.66;;;9.98;77.75
62103;BME280;48077;48.104;11.702;2023-03-14T11:32:25;93808.81;;;10.01;76.94
62103;BME280;48077;48.104;11.702;2023-03-14T11:34:52;93748.72;;;9.59;76.28
62103;BME280;48077;48.104;11.702;2023-03-14T11:40:14;93785.31;;;10.23;74.83
62103;BME280;48077;48.104;11.702;2023-03-14T11:42:36;93779.66;;;10.50;73.03
62103;BME280;48077;48.104;11.702;2023-03-14T11:45:02;93766.59;;;10.49;71.92
62103;BME280;48077;48.104;11.702;2023-03-14T11:47:32;93806.75;;;10.73;70.76
62103;BME280;48077;48.104;11.702;2023-03-14T11:50:08;93737.41;;;10.73;65.24
62103;BME280;48077;48.104;11.702;2023-03-14T11:52:46;93770.88;;;10.89;64.36
62103;BME280;48077;48.104;11.702;2023-03-14T11:57:44;93750.38;;;10.85;63.02
62103;BME280;48077;48.104;11.702;2023-03-14T12:00:17;93726.44;;;10.80;62.90
62103;BME280;48077;48.104;11.702;2023-03-14T12:10:37;93754.84;;;11.34;61.20
62103;BME280;48077;48.104;11.702;2023-03-14T12:13:02;93770.13;;;11.58;60.53
62103;BME280;48077;48.104;11.702;2023-03-14T12:15:26;93733.97;;;11.41;59.35
62103;BME280;48077;48.104;11.702;2023-03-14T12:17:54;93730.31;;;11.61;60.48
62103;BME280;48077;48.104;11.702;2023-03-14T12:20:18;93778.47;;;11.80;59.61
62103;BME280;48077;48.104;11.702;2023-03-14T12:22:45;93695.81;;;11.41;59.04
62103;BME280;48077;48.104;11.702;2023-03-14T12:27:49;93771.22;;;12.15;56.57
62103;BME280;48077;48.104;11.702;2023-03-14T12:35:36;93757.56;;;11.87;57.76
62103;BME280;48077;48.104;11.702;2023-03-14T12:38:03;93729.09;;;11.48;58.96
62103;BME280;48077;48.104;11.702;2023-03-14T12:40:39;93775.03;;;11.74;57.62
62103;BME280;48077;48.104;11.702;2023-03-14T12:43:10;93760.03;;;11.54;58.38
62103;BME280;48077;48.104;11.702;2023-03-14T12:46:07;93776.44;;;11.38;59.40
62103;BME280;48077;48.104;11.702;2023-03-14T12:48:31;93781.41;;;11.49;58.02
62103;BME280;48077;48.104;11.702;2023-03-14T12:51:01;93763.91;;;11.38;59.46
62103;BME280;48077;48.104;11.702;2023-03-14T12:53:42;93718.56;;;10.99;57.48
62103;BME280;48077;48.104;11.702;2023-03-14T13:01:55;93736.06;;;11.15;57.82
62103;BME280;48077;48.104;11.702;2023-03-14T13:04:26;93763.72;;;11.59;57.25
62103;BME280;48077;48.104;11.702;2023-03-14T13:12:00;93761.69;;;11.45;57.75
62103;BME280;48077;48.104;11.702;2023-03-14T13:14:24;93788.06;;;11.52;57.36
62103;BME280;48077;48.104;11.702;2023-03-14T13:16:48;93771.81;;;11.14;58.44
62103;BME280;48077;48.104;11.702;2023-03-14T13:19:18;93764.44;;;10.96;59.00
62103;BME280;48077;48.104;11.702;2023-03-14T13:21:43;93740.19;;;10.97;59.10
62103;BME280;48077;48.104;11.702;2023-03-14T13:24:22;93782.25;;;11.45;57.13
62103;BME280;48077;48.104;11.702;2023-03-14T13:26:46;93740.84;;;11.47;56.63
62103;BME280;48077;48.104;11.702;2023-03-14T13:31:32;93802.34;;;11.66;57.83
62103;BME280;48077;48.104;11.702;2023-03-14T13:34:01;93814.84;;;11.76;58.08
62103;BME280;48077;48.104;11.702;2023-03-14T13:36:25;93797.47;;;11.44;57.11
62103;BME280;48077;48.104;11.702;2023-03-14T13:38:56;93826.59;;;11.75;57.93
62103;BME280;48077;48.104;11.702;2023-03-14T13:41:20;93837.19;;;11.51;58.05
62103;BME280;48077;48.104;11.702;2023-03-14T13:43:44;93818.06;;;10.99;58.71
62103;BME280;48077;48.104;11.702;2023-03-14T13:46:20;93730.97;;;10.24;60.07